sensor_id;sensor_type;location;lat;lon;timestamp;pressure;altitude;pressure_sealevel;temperature;humidity
45327;BME280;31062;49.678;24.560;2023-04-25T00:02:40;97064.00;;;12.54;62.49
45327;BME280;31062;49.678;24.560;2023-04-25T00:05:26;97097.59;;;12.86;62.19
45327;BME280;31062;49.678;24.560;2023-04-25T00:08:12;96966.44;;;11.94;62.01
45327;BME280;31062;49.678;24.560;2023-04-25T00:10:58;97036.44;;;12.31;62.51
45327;BME280;31062;49.678;24.560;2023-04-25T00:13:44;97105.72;;;12.68;62.77
45327;BME280;31062;49.678;24.560;2023-04-25T00:16:32;97108.41;;;12.66;62.92
45327;BME280;31062;49.678;24.560;2023-04-25T00:19:20;97097.69;;;12.74;62.92
45327;BME280;31062;49.678;24.560;2023-04-25T00:22:06;96918.00;;;11.44;63.23
45327;BME280;31062;49.678;24.560;2023-04-25T00:24:51;97031.88;;;12.24;63.82
45327;BME280;31062;49.678;24.560;2023-04-25T00:27:38;97067.72;;;12.45;64.03
45327;BME280;31062;49.678;24.560;2023-04-25T00:30:24;96928.09;;;11.51;64.18
45327;BME280;31062;49.678;24.560;2023-04-25T00:33:10;96961.75;;;11.71;64.25
45327;BME280;31062;49.678;24.560;2023-04-25T00:35:55;96899.28;;;11.31;63.99
45327;BME280;31062;49.678;24.560;2023-04-25T00:38:41;96980.84;;;11.90;63.75
45327;BME280;31062;49.678;24.560;2023-04-25T00:41:26;97099.22;;;12.63;63.07
45327;BME280;31062;49.678;24.560;2023-04-25T00:44:14;97005.44;;;12.09;63.20
45327;BME280;31062;49.678;24.560;2023-04-25T00:47:02;97091.59;;;12.64;63.29
45327;BME280;31062;49.678;24.560;2023-04-25T00:49:49;96961.81;;;11.59;64.04
45327;BME280;31062;49.678;24.560;2023-04-25T00:52:34;96982.91;;;11.64;64.60
45327;BME280;31062;49.678;24.560;2023-04-25T00:55:20;97087.47;;;12.38;64.19
45327;BME280;31062;49.678;24.560;2023-04-25T00:58:06;97081.19;;;12.37;63.83
45327;BME280;31062;49.678;24.560;2023-04-25T01:00:52;97065.84;;;12.09;63.33
45327;BME280;31062;49.678;24.560;2023-04-25T01:03:39;96954.84;;;11.58;63.54
45327;BME280;31062;49.678;24.560;2023-04-25T01:06:28;96915.94;;;11.31;63.48
45327;BME280;31062;49.678;24.560;2023-04-25T01:09:13;96978.63;;;11.75;63.34
45327;BME280;31062;49.678;24.560;2023-04-25T01:11:59;96892.66;;;11.11;62.95
45327;BME280;31062;49.678;24.560;2023-04-25T01:14:46;97086.47;;;12.45;63.01
45327;BME280;31062;49.678;24.560;2023-04-25T01:17:33;97079.16;;;12.38;63.71
45327;BME280;31062;49.678;24.560;2023-04-25T01:20:21;97036.06;;;11.98;64.86
45327;BME280;31062;49.678;24.560;2023-04-25T01:23:08;97051.38;;;11.85;65.57
45327;BME280;31062;49.678;24.560;2023-04-25T01:25:54;96922.81;;;10.79;66.13
45327;BME280;31062;49.678;24.560;2023-04-25T01:28:40;97069.84;;;11.80;66.36
45327;BME280;31062;49.678;24.560;2023-04-25T01:31:28;96903.63;;;10.58;66.64
45327;BME280;31062;49.678;24.560;2023-04-25T01:34:13;97047.66;;;11.55;66.52
45327;BME280;31062;49.678;24.560;2023-04-25T01:37:00;97043.78;;;11.60;66.62
45327;BME280;31062;49.678;24.560;2023-04-25T01:39:46;97044.59;;;11.63;66.48
45327;BME280;31062;49.678;24.560;2023-04-25T01:42:34;96907.53;;;10.78;65.94
45327;BME280;31062;49.678;24.560;2023-04-25T01:45:20;97039.22;;;11.78;65.93
45327;BME280;31062;49.678;24.560;2023-04-25T01:48:08;97087.50;;;11.99;65.23
45327;BME280;31062;49.678;24.560;2023-04-25T01:50:54;97076.44;;;12.12;64.92
45327;BME280;31062;49.678;24.560;2023-04-25T01:53:39;97073.53;;;12.10;64.49
45327;BME280;31062;49.678;24.560;2023-04-25T01:56:30;97026.06;;;11.93;64.38
45327;BME280;31062;49.678;24.560;2023-04-25T01:59:15;97068.41;;;12.18;64.33
45327;BME280;31062;49.678;24.560;2023-04-25T02:02:30;97032.25;;;11.91;64.57
45327;BME280;31062;49.678;24.560;2023-04-25T02:05:17;97066.25;;;12.17;64.44
45327;BME280;31062;49.678;24.560;2023-04-25T02:08:05;96929.47;;;11.25;64.61
45327;BME280;31062;49.678;24.560;2023-04-25T02:10:51;97061.22;;;12.13;64.57
45327;BME280;31062;49.678;24.560;2023-04-25T02:13:37;97070.19;;;12.25;64.31
45327;BME280;31062;49.678;24.560;2023-04-25T02:16:48;96972.13;;;11.70;64.28
45327;BME280;31062;49.678;24.560;2023-04-25T02:19:34;96928.69;;;11.36;64.22
45327;BME280;31062;49.678;24.560;2023-04-25T02:22:20;96893.88;;;11.08;64.15
45327;BME280;31062;49.678;24.560;2023-04-25T02:25:06;97054.63;;;12.20;64.47
45327;BME280;31062;49.678;24.560;2023-04-25T02:27:53;96885.63;;;10.96;64.93
45327;BME280;31062;49.678;24.560;2023-04-25T02:30:39;96963.84;;;11.45;65.02
45327;BME280;31062;49.678;24.560;2023-04-25T02:33:24;96919.19;;;11.14;65.59
45327;BME280;31062;49.678;24.560;2023-04-25T02:36:10;96996.13;;;11.52;67.26
45327;BME280;31062;49.678;24.560;2023-04-25T02:38:55;96869.59;;;10.44;67.90
45327;BME280;31062;49.678;24.560;2023-04-25T02:41:41;96866.28;;;10.22;68.00
45327;BME280;31062;49.678;24.560;2023-04-25T02:44:26;97037.03;;;11.26;68.63
45327;BME280;31062;49.678;24.560;2023-04-25T02:47:12;96858.59;;;9.97;69.53
45327;BME280;31062;49.678;24.560;2023-04-25T02:49:57;96977.19;;;10.84;69.61
45327;BME280;31062;49.678;24.560;2023-04-25T02:52:42;96859.53;;;10.13;70.13
45327;BME280;31062;49.678;24.560;2023-04-25T02:55:34;96980.25;;;11.02;70.10
45327;BME280;31062;49.678;24.560;2023-04-25T02:58:22;96877.56;;;10.38;69.85
45327;BME280;31062;49.678;24.560;2023-04-25T03:01:10;97023.69;;;11.48;69.94
45327;BME280;31062;49.678;24.560;2023-04-25T03:03:55;96990.72;;;11.29;69.86
45327;BME280;31062;49.678;24.560;2023-04-25T03:06:42;97026.78;;;11.54;70.02
45327;BME280;31062;49.678;24.560;2023-04-25T03:09:27;96890.72;;;10.62;69.64
45327;BME280;31062;49.678;24.560;2023-04-25T03:12:13;97030.38;;;11.57;70.08
45327;BME280;31062;49.678;24.560;2023-04-25T03:15:03;96852.63;;;10.38;69.91
45327;BME280;31062;49.678;24.560;2023-04-25T03:17:48;97022.56;;;11.53;69.58
45327;BME280;31062;49.678;24.560;2023-04-25T03:20:34;97000.63;;;11.20;69.68
45327;BME280;31062;49.678;24.560;2023-04-25T03:23:21;97029.28;;;11.62;69.43
45327;BME280;31062;49.678;24.560;2023-04-25T03:26:06;96841.09;;;10.30;69.41
45327;BME280;31062;49.678;24.560;2023-04-25T03:28:52;96876.34;;;10.41;69.66
45327;BME280;31062;49.678;24.560;2023-04-25T03:31:38;97024.88;;;11.45;69.88
45327;BME280;31062;49.678;24.560;2023-04-25T03:34:24;97045.16;;;11.48;70.23
45327;BME280;31062;49.678;24.560;2023-04-25T03:37:10;96903.16;;;10.50;70.40
45327;BME280;31062;49.678;24.560;2023-04-25T03:39:56;97001.38;;;11.21;70.39
45327;BME280;31062;49.678;24.560;2023-04-25T03:42:49;97013.63;;;11.29;70.23
45327;BME280;31062;49.678;24.560;2023-04-25T03:45:36;96846.78;;;10.08;70.46
45327;BME280;31062;49.678;24.560;2023-04-25T03:48:21;97031.22;;;11.34;70.75
45327;BME280;31062;49.678;24.560;2023-04-25T03:51:07;97012.13;;;11.15;71.17
45327;BME280;31062;49.678;24.560;2023-04-25T03:53:56;97037.75;;;11.27;71.24
45327;BME280;31062;49.678;24.560;2023-04-25T03:56:48;97066.00;;;11.23;71.48
45327;BME280;31062;49.678;24.560;2023-04-25T03:59:37;96933.66;;;10.50;71.55
45327;BME280;31062;49.678;24.560;2023-04-25T04:02:24;97010.69;;;10.77;71.58
45327;BME280;31062;49.678;24.560;2023-04-25T04:05:11;97048.09;;;11.13;71.70
45327;BME280;31062;49.678;24.560;2023-04-25T04:08:04;97009.22;;;10.87;72.01
45327;BME280;31062;49.678;24.560;2023-04-25T04:10:51;97114.53;;;11.11;72.21
45327;BME280;31062;49.678;24.560;2023-04-25T04:13:37;96931.06;;;10.29;72.11
45327;BME280;31062;49.678;24.560;2023-04-25T04:16:24;97032.56;;;11.08;72.14
45327;BME280;31062;49.678;24.560;2023-04-25T04:19:10;96957.38;;;10.53;72.03
45327;BME280;31062;49.678;24.560;2023-04-25T04:22:00;97020.28;;;10.99;72.34
45327;BME280;31062;49.678;24.560;2023-04-25T04:24:45;97037.47;;;11.09;72.42
45327;BME280;31062;49.678;24.560;2023-04-25T04:27:37;97057.56;;;11.21;72.17
45327;BME280;31062;49.678;24.560;2023-04-25T04:30:37;97028.41;;;11.09;72.30
45327;BME280;31062;49.678;24.560;2023-04-25T04:33:25;97037.66;;;11.25;72.50
45327;BME280;31062;49.678;24.560;2023-04-25T04:36:16;97023.06;;;11.24;72.32
45327;BME280;31062;49.678;24.560;2023-04-25T04:39:06;97033.28;;;11.33;72.66
45327;BME280;31062;49.678;24.560;2023-04-25T04:42:14;96859.66;;;10.15;72.99
45327;BME280;31062;49.678;24.560;2023-04-25T04:45:15;96854.00;;;10.13;73.47
45327;BME280;31062;49.678;24.560;2023-04-25T04:48:22;96778.56;;;9.53;73.85
45327;BME280;31062;49.678;24.560;2023-04-25T04:51:14;97017.78;;;11.17;75.01
45327;BME280;31062;49.678;24.560;2023-04-25T04:54:08;97050.44;;;10.93;74.81
45327;BME280;31062;49.678;24.560;2023-04-25T04:57:10;97028.84;;;10.91;75.14
45327;BME280;31062;49.678;24.560;2023-04-25T05:00:30;97023.31;;;10.91;74.87
45327;BME280;31062;49.678;24.560;2023-04-25T05:03:39;97025.63;;;10.83;75.31
45327;BME280;31062;49.678;24.560;2023-04-25T05:06:51;97030.84;;;10.77;75.18
45327;BME280;31062;49.678;24.560;2023-04-25T05:09:59;97020.53;;;10.91;75.81
45327;BME280;31062;49.678;24.560;2023-04-25T05:13:01;96878.34;;;10.03;76.03
45327;BME280;31062;49.678;24.560;2023-04-25T05:16:02;96833.59;;;9.83;75.88
45327;BME280;31062;49.678;24.560;2023-04-25T05:19:07;96995.16;;;11.09;75.90
45327;BME280;31062;49.678;24.560;2023-04-25T05:22:05;97019.41;;;11.33;75.27
45327;BME280;31062;49.678;24.560;2023-04-25T05:24:56;97031.53;;;11.15;75.10
45327;BME280;31062;49.678;24.560;2023-04-25T05:28:02;97020.78;;;11.46;75.07
45327;BME280;31062;49.678;24.560;2023-04-25T05:31:27;97021.22;;;11.54;75.04
45327;BME280;31062;49.678;24.560;2023-04-25T05:34:18;96949.09;;;11.03;74.79
45327;BME280;31062;49.678;24.560;2023-04-25T05:37:12;96951.06;;;11.01;74.31
45327;BME280;31062;49.678;24.560;2023-04-25T05:40:10;96912.31;;;10.89;73.87
45327;BME280;31062;49.678;24.560;2023-04-25T05:43:14;96864.97;;;10.60;73.83
45327;BME280;31062;49.678;24.560;2023-04-25T05:46:14;97016.78;;;11.74;74.50
45327;BME280;31062;49.678;24.560;2023-04-25T05:49:20;96990.72;;;11.68;74.14
45327;BME280;31062;49.678;24.560;2023-04-25T05:52:41;96852.78;;;10.79;74.65
45327;BME280;31062;49.678;24.560;2023-04-25T05:55:47;96955.34;;;11.55;74.68
45327;BME280;31062;49.678;24.560;2023-04-25T05:58:40;96844.41;;;10.90;74.57
45327;BME280;31062;49.678;24.560;2023-04-25T06:01:28;96982.06;;;12.01;74.38
45327;BME280;31062;49.678;24.560;2023-04-25T06:04:14;97002.47;;;12.19;74.55
45327;BME280;31062;49.678;24.560;2023-04-25T06:07:00;96961.69;;;12.10;75.06
45327;BME280;31062;49.678;24.560;2023-04-25T06:09:46;96959.03;;;12.12;74.34
45327;BME280;31062;49.678;24.560;2023-04-25T06:12:32;96840.09;;;11.40;74.37
45327;BME280;31062;49.678;24.560;2023-04-25T06:15:18;96990.09;;;12.49;74.64
45327;BME280;31062;49.678;24.560;2023-04-25T06:18:07;96996.34;;;12.63;75.14
45327;BME280;31062;49.678;24.560;2023-04-25T06:20:53;96985.53;;;12.69;75.43
45327;BME280;31062;49.678;24.560;2023-04-25T06:23:40;96974.03;;;12.61;75.11
45327;BME280;31062;49.678;24.560;2023-04-25T06:26:28;96981.94;;;12.67;75.80
45327;BME280;31062;49.678;24.560;2023-04-25T06:29:14;96902.44;;;12.19;75.88
45327;BME280;31062;49.678;24.560;2023-04-25T06:32:00;96971.72;;;12.85;77.19
45327;BME280;31062;49.678;24.560;2023-04-25T06:34:47;96833.91;;;12.10;77.69
45327;BME280;31062;49.678;24.560;2023-04-25T06:37:33;96957.22;;;13.16;77.30
45327;BME280;31062;49.678;24.560;2023-04-25T06:40:20;96836.31;;;12.45;76.80
45327;BME280;31062;49.678;24.560;2023-04-25T06:43:05;96961.81;;;13.41;76.46
45327;BME280;31062;49.678;24.560;2023-04-25T06:46:07;96973.06;;;13.59;77.03
45327;BME280;31062;49.678;24.560;2023-04-25T06:49:00;96934.63;;;13.39;77.03
45327;BME280;31062;49.678;24.560;2023-04-25T06:51:46;96853.03;;;12.90;76.79
45327;BME280;31062;49.678;24.560;2023-04-25T06:54:31;96959.63;;;13.69;74.67
45327;BME280;31062;49.678;24.560;2023-04-25T06:57:23;96954.56;;;13.65;72.59
45327;BME280;31062;49.678;24.560;2023-04-25T07:00:10;96998.63;;;13.84;71.93
45327;BME280;31062;49.678;24.560;2023-04-25T07:02:56;96851.88;;;12.95;71.51
45327;BME280;31062;49.678;24.560;2023-04-25T07:05:42;96814.06;;;12.74;71.00
45327;BME280;31062;49.678;24.560;2023-04-25T07:08:28;96939.75;;;13.61;71.39
45327;BME280;31062;49.678;24.560;2023-04-25T07:11:15;96847.53;;;13.21;70.86
45327;BME280;31062;49.678;24.560;2023-04-25T07:14:01;96931.41;;;13.92;70.21
45327;BME280;31062;49.678;24.560;2023-04-25T07:16:47;96825.81;;;13.33;70.02
45327;BME280;31062;49.678;24.560;2023-04-25T07:19:32;96744.09;;;12.80;68.72
45327;BME280;31062;49.678;24.560;2023-04-25T07:22:19;96846.44;;;13.60;68.52
45327;BME280;31062;49.678;24.560;2023-04-25T07:25:05;96927.22;;;14.40;69.00
45327;BME280;31062;49.678;24.560;2023-04-25T07:27:52;96962.34;;;14.81;69.46
45327;BME280;31062;49.678;24.560;2023-04-25T07:30:39;96875.28;;;14.49;69.76
45327;BME280;31062;49.678;24.560;2023-04-25T07:33:24;96927.75;;;15.05;69.47
45327;BME280;31062;49.678;24.560;2023-04-25T07:36:10;96827.94;;;14.68;69.67
45327;BME280;31062;49.678;24.560;2023-04-25T07:38:57;96876.78;;;15.23;67.63
45327;BME280;31062;49.678;24.560;2023-04-25T07:41:42;96812.47;;;15.01;66.07
45327;BME280;31062;49.678;24.560;2023-04-25T07:44:34;96922.50;;;15.88;66.11
45327;BME280;31062;49.678;24.560;2023-04-25T07:47:27;96801.31;;;15.21;65.68
45327;BME280;31062;49.678;24.560;2023-04-25T07:50:12;96949.59;;;16.43;65.31
45327;BME280;31062;49.678;24.560;2023-04-25T07:52:58;96948.06;;;16.60;65.04
45327;BME280;31062;49.678;24.560;2023-04-25T07:55:50;96935.28;;;16.55;63.63
45327;BME280;31062;49.678;24.560;2023-04-25T07:58:38;96942.28;;;16.76;63.47
45327;BME280;31062;49.678;24.560;2023-04-25T08:01:26;96809.22;;;15.85;63.65
45327;BME280;31062;49.678;24.560;2023-04-25T08:04:16;96819.09;;;15.88;62.99
45327;BME280;31062;49.678;24.560;2023-04-25T08:07:16;96948.03;;;16.80;63.07
45327;BME280;31062;49.678;24.560;2023-04-25T08:10:11;96955.63;;;16.77;61.96
45327;BME280;31062;49.678;24.560;2023-04-25T08:12:57;96914.78;;;16.48;60.84
45327;BME280;31062;49.678;24.560;2023-04-25T08:15:42;96799.34;;;15.63;61.37
45327;BME280;31062;49.678;24.560;2023-04-25T08:18:28;96922.69;;;16.34;58.09
45327;BME280;31062;49.678;24.560;2023-04-25T08:21:13;96951.47;;;16.58;57.96
45327;BME280;31062;49.678;24.560;2023-04-25T08:23:59;96949.91;;;16.53;57.97
45327;BME280;31062;49.678;24.560;2023-04-25T08:26:51;96889.31;;;16.18;58.41
45327;BME280;31062;49.678;24.560;2023-04-25T08:29:39;96940.09;;;16.52;58.94
45327;BME280;31062;49.678;24.560;2023-04-25T08:32:24;96778.72;;;15.52;58.39
45327;BME280;31062;49.678;24.560;2023-04-25T08:35:28;96948.34;;;16.90;58.00
45327;BME280;31062;49.678;24.560;2023-04-25T08:38:15;96656.19;;;14.81;56.97
45327;BME280;31062;49.678;24.560;2023-04-25T08:41:01;96889.56;;;16.90;56.84
45327;BME280;31062;49.678;24.560;2023-04-25T08:43:50;96896.97;;;17.03;56.45
45327;BME280;31062;49.678;24.560;2023-04-25T08:46:40;96925.84;;;17.31;54.89
45327;BME280;31062;49.678;24.560;2023-04-25T08:49:43;96935.72;;;17.34;54.05
45327;BME280;31062;49.678;24.560;2023-04-25T08:52:38;96876.41;;;16.94;53.57
45327;BME280;31062;49.678;24.560;2023-04-25T08:55:26;96908.59;;;17.17;53.08
45327;BME280;31062;49.678;24.560;2023-04-25T08:58:18;96781.56;;;16.37;52.68
45327;BME280;31062;49.678;24.560;2023-04-25T09:01:06;96788.44;;;16.34;53.14
45327;BME280;31062;49.678;24.560;2023-04-25T09:03:59;96892.34;;;17.11;52.44
45327;BME280;31062;49.678;24.560;2023-04-25T09:06:46;96732.63;;;16.14;52.57
45327;BME280;31062;49.678;24.560;2023-04-25T09:09:33;96881.31;;;17.18;53.17
45327;BME280;31062;49.678;24.560;2023-04-25T09:12:18;96950.28;;;17.52;51.88
45327;BME280;31062;49.678;24.560;2023-04-25T09:15:11;96936.00;;;17.66;51.83
45327;BME280;31062;49.678;24.560;2023-04-25T09:18:32;96945.41;;;17.77;51.65
45327;BME280;31062;49.678;24.560;2023-04-25T09:21:22;96773.09;;;16.79;51.69
45327;BME280;31062;49.678;24.560;2023-04-25T09:24:08;96919.88;;;17.90;50.52
45327;BME280;31062;49.678;24.560;2023-04-25T09:26:54;96805.13;;;17.21;50.59
45327;BME280;31062;49.678;24.560;2023-04-25T09:29:40;96867.66;;;17.77;50.79
45327;BME280;31062;49.678;24.560;2023-04-25T09:32:28;96936.91;;;18.22;50.58
45327;BME280;31062;49.678;24.560;2023-04-25T09:35:26;96894.22;;;18.00;50.02
45327;BME280;31062;49.678;24.560;2023-04-25T09:38:18;96775.41;;;17.10;49.62
45327;BME280;31062;49.678;24.560;2023-04-25T09:41:23;96803.44;;;17.12;49.16
45327;BME280;31062;49.678;24.560;2023-04-25T09:44:12;96815.53;;;17.19;49.32
45327;BME280;31062;49.678;24.560;2023-04-25T09:47:00;96931.22;;;17.71;49.78
45327;BME280;31062;49.678;24.560;2023-04-25T09:49:47;96887.94;;;17.52;50.20
45327;BME280;31062;49.678;24.560;2023-04-25T09:52:33;96773.56;;;16.71;49.99
45327;BME280;31062;49.678;24.560;2023-04-25T09:55:34;96936.63;;;17.63;51.02
45327;BME280;31062;49.678;24.560;2023-04-25T09:58:20;96915.47;;;17.60;50.89
45327;BME280;31062;49.678;24.560;2023-04-25T10:01:08;96796.84;;;16.78;50.40
45327;BME280;31062;49.678;24.560;2023-04-25T10:04:05;96749.94;;;16.54;51.04
45327;BME280;31062;49.678;24.560;2023-04-25T10:07:19;96915.59;;;17.64;51.90
45327;BME280;31062;49.678;24.560;2023-04-25T10:10:07;96887.16;;;17.49;50.52
45327;BME280;31062;49.678;24.560;2023-04-25T10:12:53;96798.22;;;17.00;50.93
45327;BME280;31062;49.678;24.560;2023-04-25T10:15:40;96931.59;;;17.83;52.56
45327;BME280;31062;49.678;24.560;2023-04-25T10:18:26;96894.25;;;17.76;50.80
45327;BME280;31062;49.678;24.560;2023-04-25T10:21:12;96761.16;;;17.02;51.27
45327;BME280;31062;49.678;24.560;2023-04-25T10:23:59;96899.72;;;17.96;50.69
45327;BME280;31062;49.678;24.560;2023-04-25T10:26:46;96912.78;;;18.13;50.27
45327;BME280;31062;49.678;24.560;2023-04-25T10:29:32;96884.50;;;18.03;49.67
45327;BME280;31062;49.678;24.560;2023-04-25T10:32:18;96738.41;;;17.13;48.70
45327;BME280;31062;49.678;24.560;2023-04-25T10:35:14;96830.56;;;17.79;48.85
45327;BME280;31062;49.678;24.560;2023-04-25T10:38:05;96888.94;;;18.12;48.58
45327;BME280;31062;49.678;24.560;2023-04-25T10:41:05;96882.78;;;17.92;48.56
45327;BME280;31062;49.678;24.560;2023-04-25T10:43:59;96874.53;;;17.98;48.68
45327;BME280;31062;49.678;24.560;2023-04-25T10:46:46;96741.50;;;17.00;49.46
45327;BME280;31062;49.678;24.560;2023-04-25T10:49:42;96855.72;;;17.77;49.25
45327;BME280;31062;49.678;24.560;2023-04-25T10:52:28;96885.16;;;18.02;49.77
45327;BME280;31062;49.678;24.560;2023-04-25T10:55:15;96771.69;;;17.27;49.92
45327;BME280;31062;49.678;24.560;2023-04-25T10:58:01;96857.06;;;17.74;49.47
45327;BME280;31062;49.678;24.560;2023-04-25T11:00:47;96871.91;;;18.04;50.88
45327;BME280;31062;49.678;24.560;2023-04-25T11:03:41;96893.63;;;18.04;49.92
45327;BME280;31062;49.678;24.560;2023-04-25T11:09:40;96887.28;;;18.03;50.10
45327;BME280;31062;49.678;24.560;2023-04-25T11:12:26;96826.66;;;17.64;49.36
45327;BME280;31062;49.678;24.560;2023-04-25T11:15:11;96854.59;;;17.86;48.90
45327;BME280;31062;49.678;24.560;2023-04-25T11:17:57;96888.72;;;18.04;48.93
45327;BME280;31062;49.678;24.560;2023-04-25T11:20:43;96863.50;;;18.04;48.39
45327;BME280;31062;49.678;24.560;2023-04-25T11:23:29;96841.50;;;17.94;48.37
45327;BME280;31062;49.678;24.560;2023-04-25T11:26:15;96887.53;;;18.11;49.47
45327;BME280;31062;49.678;24.560;2023-04-25T11:29:01;96706.66;;;17.05;49.97
45327;BME280;31062;49.678;24.560;2023-04-25T11:31:48;96846.81;;;18.10;50.54
45327;BME280;31062;49.678;24.560;2023-04-25T11:34:34;96712.56;;;17.15;49.25
45327;BME280;31062;49.678;24.560;2023-04-25T11:37:19;96858.22;;;18.18;49.51
45327;BME280;31062;49.678;24.560;2023-04-25T11:40:06;96844.06;;;18.12;48.77
45327;BME280;31062;49.678;24.560;2023-04-25T11:42:54;96789.66;;;17.70;48.36
45327;BME280;31062;49.678;24.560;2023-04-25T11:45:39;96858.91;;;18.17;48.73
45327;BME280;31062;49.678;24.560;2023-04-25T11:48:25;96740.50;;;17.39;49.10
45327;BME280;31062;49.678;24.560;2023-04-25T11:51:11;96696.88;;;17.06;49.93
45327;BME280;31062;49.678;24.560;2023-04-25T11:53:57;96852.22;;;18.02;50.26
45327;BME280;31062;49.678;24.560;2023-04-25T11:56:46;96848.13;;;18.07;50.52
45327;BME280;31062;49.678;24.560;2023-04-25T11:59:31;96707.38;;;17.05;50.86
45327;BME280;31062;49.678;24.560;2023-04-25T12:02:24;96762.47;;;17.48;50.40
45327;BME280;31062;49.678;24.560;2023-04-25T12:05:13;96843.72;;;17.98;51.30
45327;BME280;31062;49.678;24.560;2023-04-25T12:08:16;96704.47;;;17.01;51.63
45327;BME280;31062;49.678;24.560;2023-04-25T12:11:02;96832.38;;;17.94;51.83
45327;BME280;31062;49.678;24.560;2023-04-25T12:13:51;96685.78;;;16.84;51.08
45327;BME280;31062;49.678;24.560;2023-04-25T12:16:45;96431.75;;;15.08;51.40
45327;BME280;31062;49.678;24.560;2023-04-25T12:19:36;96804.13;;;17.60;51.46
45327;BME280;31062;49.678;24.560;2023-04-25T12:22:23;96825.41;;;17.69;51.53
45327;BME280;31062;49.678;24.560;2023-04-25T12:25:33;96663.22;;;16.54;51.71
45327;BME280;31062;49.678;24.560;2023-04-25T12:28:23;96772.59;;;17.34;52.48
45327;BME280;31062;49.678;24.560;2023-04-25T12:31:09;96825.19;;;17.61;52.71
45327;BME280;31062;49.678;24.560;2023-04-25T12:33:56;96637.53;;;16.36;52.70
45327;BME280;31062;49.678;24.560;2023-04-25T12:36:42;96818.44;;;17.46;52.36
45327;BME280;31062;49.678;24.560;2023-04-25T12:39:27;96733.19;;;17.02;52.67
45327;BME280;31062;49.678;24.560;2023-04-25T12:42:13;96778.78;;;17.30;51.97
45327;BME280;31062;49.678;24.560;2023-04-25T12:44:58;96678.84;;;16.61;51.57
45327;BME280;31062;49.678;24.560;2023-04-25T12:47:44;96820.09;;;17.55;52.04
45327;BME280;31062;49.678;24.560;2023-04-25T12:50:30;96699.31;;;16.68;52.14
45327;BME280;31062;49.678;24.560;2023-04-25T12:53:17;96664.34;;;16.45;52.46
45327;BME280;31062;49.678;24.560;2023-04-25T12:56:03;96685.66;;;16.56;52.94
45327;BME280;31062;49.678;24.560;2023-04-25T12:58:49;96787.25;;;17.32;52.88
45327;BME280;31062;49.678;24.560;2023-04-25T13:01:36;96804.38;;;17.44;53.36
45327;BME280;31062;49.678;24.560;2023-04-25T13:04:22;96791.34;;;17.29;53.79
45327;BME280;31062;49.678;24.560;2023-04-25T13:07:08;96745.81;;;17.03;54.10
45327;BME280;31062;49.678;24.560;2023-04-25T13:09:54;96744.97;;;16.98;54.17
45327;BME280;31062;49.678;24.560;2023-04-25T13:12:39;96797.94;;;17.40;54.18
45327;BME280;31062;49.678;24.560;2023-04-25T13:15:25;96793.06;;;17.40;54.64
45327;BME280;31062;49.678;24.560;2023-04-25T13:18:11;96788.59;;;17.31;54.30
45327;BME280;31062;49.678;24.560;2023-04-25T13:20:57;96794.13;;;17.29;54.54
45327;BME280;31062;49.678;24.560;2023-04-25T13:23:43;96757.22;;;17.11;54.79
45327;BME280;31062;49.678;24.560;2023-04-25T13:26:32;96783.72;;;17.32;54.63
45327;BME280;31062;49.678;24.560;2023-04-25T13:29:17;96774.50;;;17.27;55.36
45327;BME280;31062;49.678;24.560;2023-04-25T13:32:03;96774.38;;;17.23;55.53
45327;BME280;31062;49.678;24.560;2023-04-25T13:34:48;96662.97;;;16.46;55.69
45327;BME280;31062;49.678;24.560;2023-04-25T13:37:34;96675.41;;;16.41;53.82
45327;BME280;31062;49.678;24.560;2023-04-25T13:40:20;96784.75;;;17.19;54.56
45327;BME280;31062;49.678;24.560;2023-04-25T13:43:09;96633.88;;;16.08;55.72
45327;BME280;31062;49.678;24.560;2023-04-25T13:45:55;96792.03;;;17.04;56.38
45327;BME280;31062;49.678;24.560;2023-04-25T13:48:40;96754.94;;;16.80;56.66
45327;BME280;31062;49.678;24.560;2023-04-25T13:51:31;96794.50;;;16.94;57.29
45327;BME280;31062;49.678;24.560;2023-04-25T13:54:16;96761.63;;;16.70;57.71
45327;BME280;31062;49.678;24.560;2023-04-25T13:57:02;96758.78;;;16.68;56.50
45327;BME280;31062;49.678;24.560;2023-04-25T13:59:47;96818.22;;;16.91;56.54
45327;BME280;31062;49.678;24.560;2023-04-25T14:02:33;96751.19;;;16.49;57.88
45327;BME280;31062;49.678;24.560;2023-04-25T14:05:18;96687.84;;;15.90;61.83
45327;BME280;31062;49.678;24.560;2023-04-25T14:08:08;96664.44;;;15.58;62.34
45327;BME280;31062;49.678;24.560;2023-04-25T14:10:54;96828.16;;;16.50;63.27
45327;BME280;31062;49.678;24.560;2023-04-25T14:13:40;96691.53;;;15.54;63.90
45327;BME280;31062;49.678;24.560;2023-04-25T14:16:25;96799.13;;;16.18;63.85
45327;BME280;31062;49.678;24.560;2023-04-25T14:19:11;96835.53;;;16.20;63.09
45327;BME280;31062;49.678;24.560;2023-04-25T14:21:57;96684.78;;;15.21;63.57
45327;BME280;31062;49.678;24.560;2023-04-25T14:24:42;96774.19;;;15.82;64.48
45327;BME280;31062;49.678;24.560;2023-04-25T14:27:28;96758.25;;;15.65;65.50
45327;BME280;31062;49.678;24.560;2023-04-25T14:30:13;96844.88;;;16.07;66.32
45327;BME280;31062;49.678;24.560;2023-04-25T14:32:58;96829.91;;;15.98;66.85
45327;BME280;31062;49.678;24.560;2023-04-25T14:35:45;96826.13;;;15.89;67.41
45327;BME280;31062;49.678;24.560;2023-04-25T14:38:31;96725.47;;;15.06;67.49
45327;BME280;31062;49.678;24.560;2023-04-25T14:41:16;96842.81;;;15.87;68.42
45327;BME280;31062;49.678;24.560;2023-04-25T14:44:02;96834.00;;;15.75;67.92
45327;BME280;31062;49.678;24.560;2023-04-25T14:46:48;96850.91;;;15.79;68.24
45327;BME280;31062;49.678;24.560;2023-04-25T14:49:36;96822.16;;;15.55;68.44